createdAt,value
2022-12-09T00:01:57.175Z,1.60
2022-12-09T00:04:25.614Z,1.60
2022-12-09T00:06:54.015Z,1.60
2022-12-09T00:09:22.191Z,1.80
2022-12-09T00:11:52.803Z,1.60
2022-12-09T00:14:20.950Z,1.60
2022-12-09T00:16:49.240Z,1.60
2022-12-09T00:19:17.792Z,1.60
2022-12-09T00:21:45.883Z,1.60
2022-12-09T00:24:15.009Z,1.60
2022-12-09T00:26:43.448Z,1.60
2022-12-09T00:29:13.767Z,1.60
2022-12-09T00:31:41.981Z,1.60
2022-12-09T00:34:13.425Z,1.50
2022-12-09T00:36:41.924Z,1.50
2022-12-09T00:39:12.230Z,1.50
2022-12-09T00:41:40.691Z,1.40
2022-12-09T00:44:08.755Z,1.50
2022-12-09T00:46:38.388Z,1.50
2022-12-09T00:49:06.536Z,1.50
2022-12-09T00:51:34.651Z,1.40
2022-12-09T00:54:04.197Z,1.40
2022-12-09T00:56:32.805Z,1.40
2022-12-09T00:59:01.457Z,1.30
2022-12-09T01:01:30.304Z,1.40
2022-12-09T01:04:00.041Z,1.30
2022-12-09T01:06:28.748Z,1.30
2022-12-09T01:08:56.774Z,1.30
2022-12-09T01:11:27.872Z,1.30
2022-12-09T01:14:01.195Z,1.30
2022-12-09T01:16:32.350Z,1.20
2022-12-09T01:19:04.881Z,1.20
2022-12-09T01:21:34.332Z,1.10
2022-12-09T01:24:02.846Z,1.10
2022-12-09T01:26:31.154Z,1.00
2022-12-09T01:28:59.452Z,1.10
2022-12-09T01:31:28.009Z,1.10
2022-12-09T01:33:57.010Z,1.10
2022-12-09T01:36:28.611Z,1.10
2022-12-09T01:38:58.259Z,1.10
2022-12-09T01:41:26.990Z,1.10
2022-12-09T01:44:13.697Z,1.00
2022-12-09T01:46:42.189Z,1.00
2022-12-09T01:49:16.143Z,1.00
2022-12-09T01:51:48.845Z,1.00
2022-12-09T01:54:17.865Z,1.00
2022-12-09T01:56:45.953Z,1.00
2022-12-09T01:59:17.103Z,1.00
2022-12-09T02:01:49.204Z,1.00
2022-12-09T02:04:17.901Z,1.00
2022-12-09T02:06:47.585Z,1.10
2022-12-09T02:09:16.169Z,1.10
2022-12-09T02:11:57.773Z,1.00
2022-12-09T02:14:32.624Z,1.00
2022-12-09T02:17:19.159Z,1.00
2022-12-09T02:20:01.587Z,1.10
2022-12-09T02:22:35.603Z,1.00
2022-12-09T02:25:14.216Z,1.00
2022-12-09T02:27:49.712Z,0.90
2022-12-09T02:30:21.405Z,0.80
2022-12-09T02:33:09.929Z,0.70
2022-12-09T02:35:43.972Z,0.80
2022-12-09T02:38:14.525Z,0.70
2022-12-09T02:40:47.668Z,0.70
2022-12-09T02:43:19.121Z,0.60
2022-12-09T02:45:48.898Z,0.60
2022-12-09T02:48:19.155Z,0.50
2022-12-09T02:50:51.227Z,0.50
2022-12-09T02:53:19.736Z,0.50
2022-12-09T02:55:50.465Z,0.50
2022-12-09T02:58:18.589Z,0.50
2022-12-09T03:00:46.713Z,0.50
2022-12-09T03:03:16.889Z,0.60
2022-12-09T03:05:57.636Z,0.60
2022-12-09T03:08:34.841Z,0.70
2022-12-09T03:11:07.886Z,0.80
2022-12-09T03:13:50.618Z,1.00
2022-12-09T03:16:24.445Z,1.10
2022-12-09T03:18:56.779Z,1.20
2022-12-09T03:21:29.082Z,1.40
2022-12-09T03:23:59.785Z,1.50
2022-12-09T03:26:31.033Z,1.50
2022-12-09T03:29:01.997Z,1.50
2022-12-09T03:31:32.665Z,1.60
2022-12-09T03:34:05.300Z,1.60
2022-12-09T03:36:37.880Z,1.70
2022-12-09T03:39:11.131Z,1.70
2022-12-09T03:41:43.369Z,1.70
2022-12-09T03:44:17.980Z,1.80
2022-12-09T03:46:47.449Z,1.90
2022-12-09T03:49:16.115Z,1.90
2022-12-09T03:51:49.196Z,2.10
2022-12-09T03:54:23.606Z,2.30
2022-12-09T03:56:55.558Z,2.20
2022-12-09T03:59:25.667Z,2.20
2022-12-09T04:01:54.600Z,2.20
2022-12-09T04:04:23.560Z,2.10
2022-12-09T04:06:55.195Z,2.10
2022-12-09T04:09:23.463Z,2.10
2022-12-09T04:11:52.411Z,2.10
2022-12-09T04:14:20.662Z,2.10
2022-12-09T04:16:49.131Z,2.10
2022-12-09T04:19:17.553Z,2.10
2022-12-09T04:21:46.017Z,2.00
2022-12-09T04:24:15.757Z,2.20
2022-12-09T04:26:44.287Z,2.20
2022-12-09T04:29:12.697Z,2.10
2022-12-09T04:31:40.916Z,2.10
2022-12-09T04:34:12.282Z,2.10
2022-12-09T04:36:40.458Z,2.10
2022-12-09T04:39:09.190Z,2.10
2022-12-09T04:41:39.043Z,2.20
2022-12-09T04:44:07.772Z,2.20
2022-12-09T04:46:36.082Z,2.20
2022-12-09T04:49:05.312Z,2.20
2022-12-09T04:51:39.637Z,2.20
2022-12-09T04:54:08.973Z,2.30
2022-12-09T04:56:38.626Z,2.30
2022-12-09T04:59:07.934Z,2.30
2022-12-09T05:01:36.725Z,2.30
2022-12-09T05:04:05.856Z,2.30
2022-12-09T05:06:35.283Z,2.30
2022-12-09T05:09:05.282Z,2.30
2022-12-09T05:11:33.779Z,2.30
2022-12-09T05:14:03.712Z,2.20
2022-12-09T05:16:31.907Z,2.20
2022-12-09T05:19:01.539Z,2.20
2022-12-09T05:21:30.050Z,2.10
2022-12-09T05:23:58.393Z,2.10
2022-12-09T05:26:27.139Z,2.10
2022-12-09T05:28:55.482Z,2.30
2022-12-09T05:31:25.520Z,2.20
2022-12-09T05:33:54.082Z,2.10
2022-12-09T05:36:25.520Z,2.10
2022-12-09T05:38:54.609Z,2.10
2022-12-09T05:41:23.793Z,2.00
2022-12-09T05:43:52.647Z,2.00
2022-12-09T05:46:21.588Z,2.00
2022-12-09T05:48:51.692Z,2.00
2022-12-09T05:51:24.625Z,1.90
2022-12-09T05:53:53.946Z,1.90
2022-12-09T05:56:24.379Z,1.80
2022-12-09T05:58:53.395Z,2.00
2022-12-09T06:01:22.915Z,1.80
2022-12-09T06:03:54.206Z,1.70
2022-12-09T06:06:26.648Z,1.70
2022-12-09T06:08:57.490Z,1.80
2022-12-09T06:11:26.732Z,1.70
2022-12-09T06:13:56.163Z,1.70
2022-12-09T06:16:24.942Z,1.70
2022-12-09T06:18:55.177Z,1.80
2022-12-09T06:21:23.958Z,1.90
2022-12-09T06:23:54.296Z,1.80
2022-12-09T06:26:25.289Z,1.80
2022-12-09T06:28:56.169Z,1.80
2022-12-09T06:31:24.919Z,1.70
2022-12-09T06:33:57.220Z,1.70
2022-12-09T06:36:26.154Z,1.70
2022-12-09T06:38:56.683Z,1.60
2022-12-09T06:41:25.493Z,1.60
2022-12-09T06:43:53.866Z,1.50
2022-12-09T06:46:24.914Z,1.50
2022-12-09T06:48:55.956Z,1.60
2022-12-09T06:51:26.099Z,1.60
2022-12-09T06:53:55.306Z,1.60
2022-12-09T06:56:24.032Z,1.60
2022-12-09T06:58:52.846Z,1.70
2022-12-09T07:01:23.616Z,1.80
2022-12-09T07:03:55.675Z,1.70
2022-12-09T07:06:28.588Z,1.70
2022-12-09T07:08:59.984Z,1.60
2022-12-09T07:11:31.860Z,1.70
2022-12-09T07:14:01.355Z,1.70
2022-12-09T07:16:30.271Z,1.70
2022-12-09T07:19:05.219Z,1.60
2022-12-09T07:21:34.682Z,1.60
2022-12-09T07:24:04.622Z,1.70
2022-12-09T07:26:33.697Z,1.60
2022-12-09T07:29:04.089Z,1.60
2022-12-09T07:31:32.697Z,1.70
2022-12-09T07:34:03.436Z,1.80
2022-12-09T07:36:33.812Z,1.80
2022-12-09T07:39:06.131Z,1.80
2022-12-09T07:41:34.701Z,1.90
2022-12-09T07:44:03.459Z,2.10
2022-12-09T07:46:32.334Z,2.10
2022-12-09T07:49:04.593Z,2.30
2022-12-09T07:51:33.548Z,2.20
2022-12-09T07:54:02.593Z,2.60
2022-12-09T07:56:30.941Z,2.30
2022-12-09T07:59:00.066Z,2.20
2022-12-09T08:01:31.055Z,2.30
2022-12-09T08:04:00.376Z,2.30
2022-12-09T08:06:32.012Z,2.40
2022-12-09T08:09:02.426Z,2.50
2022-12-09T08:11:33.167Z,2.50
2022-12-09T08:14:08.997Z,2.50
2022-12-09T08:16:40.359Z,2.80
2022-12-09T08:19:09.244Z,2.40
2022-12-09T08:21:39.808Z,2.50
2022-12-09T08:24:08.802Z,2.50
2022-12-09T08:26:39.450Z,2.40
2022-12-09T08:29:10.368Z,2.50
2022-12-09T08:31:42.360Z,2.50
2022-12-09T08:34:11.255Z,2.60
2022-12-09T08:36:41.111Z,2.70
2022-12-09T08:39:10.109Z,2.80
2022-12-09T08:41:39.994Z,2.90
2022-12-09T08:44:11.980Z,2.90
2022-12-09T08:46:41.899Z,3.00
2022-12-09T08:49:11.012Z,3.10
2022-12-09T08:51:41.388Z,3.20
2022-12-09T08:54:09.930Z,3.30
2022-12-09T08:56:38.708Z,3.40
2022-12-09T08:59:07.586Z,3.40
2022-12-09T09:01:36.449Z,3.50
2022-12-09T09:04:08.132Z,3.60
2022-12-09T09:06:38.475Z,3.70
2022-12-09T09:09:10.034Z,3.70
2022-12-09T09:11:39.452Z,3.70
2022-12-09T09:14:10.168Z,3.90
2022-12-09T09:16:40.795Z,4.00
2022-12-09T09:19:09.927Z,4.00
2022-12-09T09:21:38.574Z,4.10
2022-12-09T09:24:12.096Z,4.10
2022-12-09T09:26:42.611Z,4.20
2022-12-09T09:29:15.329Z,4.40
2022-12-09T09:31:44.236Z,4.50
2022-12-09T09:34:13.247Z,4.50
2022-12-09T09:36:42.154Z,4.50
2022-12-09T09:39:23.187Z,4.40
2022-12-09T09:41:53.806Z,4.70
2022-12-09T09:44:27.326Z,4.90
2022-12-09T09:46:58.583Z,5.30
2022-12-09T09:49:33.661Z,5.40
2022-12-09T09:52:06.596Z,5.30
2022-12-09T09:54:38.545Z,5.20
2022-12-09T09:57:15.783Z,4.80
2022-12-09T10:00:03.396Z,4.60
2022-12-09T10:03:03.461Z,4.40
2022-12-09T10:05:36.135Z,4.30
2022-12-09T10:08:32.784Z,4.20
2022-12-09T10:11:16.371Z,4.10
2022-12-09T10:13:51.675Z,4.20
2022-12-09T10:16:25.149Z,4.20
2022-12-09T10:19:08.927Z,4.30
2022-12-09T10:21:42.598Z,4.30
2022-12-09T10:24:23.226Z,4.20
2022-12-09T10:27:02.231Z,4.30
2022-12-09T10:29:47.699Z,3.90
2022-12-09T10:32:19.844Z,4.90
2022-12-09T10:34:49.691Z,4.70
2022-12-09T10:37:30.950Z,4.90
2022-12-09T10:40:08.998Z,5.20
2022-12-09T10:43:05.710Z,5.50
2022-12-09T10:46:00.180Z,6.00
2022-12-09T10:48:33.152Z,6.20
2022-12-09T10:51:06.214Z,6.30
2022-12-09T10:53:36.174Z,6.10
2022-12-09T10:56:05.756Z,6.40
2022-12-09T10:58:35.307Z,5.80
2022-12-09T11:01:07.829Z,5.80
2022-12-09T11:03:39.713Z,5.90
2022-12-09T11:06:20.424Z,5.80
2022-12-09T11:08:53.507Z,5.90
2022-12-09T11:11:38.824Z,5.80
2022-12-09T11:14:23.102Z,5.80
2022-12-09T11:16:53.775Z,5.70
2022-12-09T11:19:37.892Z,5.50
2022-12-09T11:22:39.606Z,5.40
2022-12-09T11:25:23.169Z,5.20
2022-12-09T11:27:55.296Z,4.90
2022-12-09T11:30:27.999Z,4.70
2022-12-09T11:33:03.716Z,4.80
2022-12-09T11:35:38.326Z,3.90
2022-12-09T11:38:30.976Z,5.20
2022-12-09T11:41:03.971Z,5.10
2022-12-09T11:43:42.705Z,5.20
2022-12-09T11:46:23.081Z,5.20
2022-12-09T11:48:59.580Z,5.10
2022-12-09T11:51:34.200Z,5.10
2022-12-09T11:54:06.797Z,5.00
2022-12-09T11:56:37.814Z,3.60
2022-12-09T11:59:10.574Z,4.80
2022-12-09T12:01:49.234Z,4.90
2022-12-09T12:04:21.393Z,5.00
2022-12-09T12:06:53.062Z,5.10
2022-12-09T12:09:26.146Z,5.30
2022-12-09T12:12:08.704Z,5.50
2022-12-09T12:14:39.797Z,5.80
2022-12-09T12:17:18.964Z,5.80
2022-12-09T12:19:50.468Z,5.80
2022-12-09T12:22:54.745Z,5.80
2022-12-09T12:25:47.856Z,5.70
2022-12-09T12:28:46.178Z,5.50
2022-12-09T12:31:28.648Z,5.30
2022-12-09T12:34:24.754Z,5.20
2022-12-09T12:37:02.364Z,5.10
2022-12-09T12:39:46.105Z,5.40
2022-12-09T12:42:30.037Z,5.10
2022-12-09T12:45:22.075Z,5.30
2022-12-09T12:47:58.092Z,4.90
2022-12-09T12:50:44.160Z,4.80
2022-12-09T12:53:21.516Z,4.70
2022-12-09T12:55:56.146Z,4.70
2022-12-09T12:58:41.062Z,4.80
2022-12-09T13:01:15.993Z,4.90
2022-12-09T13:03:54.830Z,5.10
2022-12-09T13:06:39.791Z,5.20
2022-12-09T13:09:12.939Z,5.20
2022-12-09T13:12:06.015Z,5.40
2022-12-09T13:14:40.918Z,5.30
2022-12-09T13:17:13.755Z,5.40
2022-12-09T13:19:44.493Z,5.20
2022-12-09T13:22:20.619Z,5.10
2022-12-09T13:25:00.183Z,5.00
2022-12-09T13:27:36.917Z,5.10
2022-12-09T13:30:10.551Z,5.00
2022-12-09T13:32:59.826Z,5.00
2022-12-09T13:35:35.668Z,4.90
2022-12-09T13:38:05.307Z,4.80
2022-12-09T13:40:36.930Z,4.70
2022-12-09T13:43:18.616Z,4.70
2022-12-09T13:45:54.019Z,4.50
2022-12-09T13:48:46.013Z,4.50
2022-12-09T13:51:14.772Z,4.50
2022-12-09T13:53:54.680Z,4.50
2022-12-09T13:56:28.291Z,4.60
2022-12-09T13:59:28.857Z,4.70
2022-12-09T14:02:01.758Z,4.70
2022-12-09T14:04:35.082Z,4.60
2022-12-09T14:07:10.903Z,4.60
2022-12-09T14:09:48.828Z,4.60
2022-12-09T14:12:55.677Z,4.60
2022-12-09T14:15:38.653Z,4.50
2022-12-09T14:18:28.168Z,4.60
2022-12-09T14:21:25.342Z,4.80
2022-12-09T14:24:30.674Z,4.80
2022-12-09T14:27:19.655Z,4.80
2022-12-09T14:29:54.183Z,4.80
2022-12-09T14:32:29.032Z,4.80
2022-12-09T14:35:24.109Z,4.80
2022-12-09T14:38:19.562Z,4.80
2022-12-09T14:40:55.959Z,4.90
2022-12-09T14:43:58.900Z,4.80
2022-12-09T14:46:30.487Z,4.70
2022-12-09T14:49:03.007Z,4.60
2022-12-09T14:51:36.681Z,4.70
2022-12-09T14:54:07.954Z,4.60
2022-12-09T14:56:36.268Z,4.60
2022-12-09T14:59:09.291Z,4.70
2022-12-09T15:01:56.210Z,4.70
2022-12-09T15:04:29.469Z,4.80
2022-12-09T15:07:12.822Z,4.80
2022-12-09T15:09:53.397Z,4.80
2022-12-09T15:12:25.444Z,4.80
2022-12-09T15:14:59.192Z,4.80
2022-12-09T15:17:31.166Z,4.70
2022-12-09T15:20:00.825Z,4.70
2022-12-09T15:22:32.644Z,4.70
2022-12-09T15:25:02.422Z,4.70
2022-12-09T15:27:31.676Z,4.70
2022-12-09T15:30:01.135Z,4.60
2022-12-09T15:32:30.735Z,4.60
2022-12-09T15:35:16.145Z,4.60
2022-12-09T15:37:45.096Z,4.60
2022-12-09T15:40:15.866Z,4.60
2022-12-09T15:42:47.605Z,4.50
2022-12-09T15:45:20.268Z,4.50
2022-12-09T15:47:51.909Z,4.50
2022-12-09T15:50:24.430Z,4.40
2022-12-09T15:52:55.525Z,4.30
2022-12-09T15:55:29.393Z,4.30
2022-12-09T15:58:01.618Z,4.20
2022-12-09T16:00:31.152Z,4.20
2022-12-09T16:02:59.683Z,4.10
2022-12-09T16:05:27.861Z,4.10
2022-12-09T16:07:58.979Z,4.00
2022-12-09T16:10:28.138Z,3.90
2022-12-09T16:13:09.849Z,4.00
2022-12-09T16:15:46.071Z,3.90
2022-12-09T16:18:19.004Z,4.30
2022-12-09T16:21:03.260Z,3.90
2022-12-09T16:23:31.391Z,4.40
2022-12-09T16:26:07.080Z,3.90
2022-12-09T16:28:36.558Z,4.00
2022-12-09T16:31:18.721Z,3.90
2022-12-09T16:33:49.722Z,4.00
2022-12-09T16:36:20.409Z,4.00
2022-12-09T16:39:32.733Z,3.90
2022-12-09T16:42:03.310Z,3.90
2022-12-09T16:44:34.855Z,3.90
2022-12-09T16:47:16.188Z,3.90
2022-12-09T16:49:47.882Z,3.80
2022-12-09T16:52:18.595Z,3.80
2022-12-09T16:54:48.384Z,3.80
2022-12-09T16:57:18.580Z,3.80
2022-12-09T16:59:46.991Z,3.80
2022-12-09T17:02:22.191Z,3.80
2022-12-09T17:04:51.977Z,3.80
2022-12-09T17:07:20.125Z,3.70
2022-12-09T17:09:48.375Z,3.80
2022-12-09T17:12:16.612Z,3.70
2022-12-09T17:14:45.093Z,3.70
2022-12-09T17:17:13.533Z,3.70
2022-12-09T17:19:44.148Z,3.70
2022-12-09T17:22:12.454Z,3.60
2022-12-09T17:24:40.715Z,3.60
2022-12-09T17:27:08.716Z,3.50
2022-12-09T17:29:37.275Z,3.40
2022-12-09T17:32:05.776Z,3.40
2022-12-09T17:34:34.133Z,3.30
2022-12-09T17:37:03.676Z,3.30
2022-12-09T17:39:32.052Z,3.20
2022-12-09T17:42:00.311Z,3.10
2022-12-09T17:44:28.506Z,3.10
2022-12-09T17:46:56.986Z,3.00
2022-12-09T17:49:25.447Z,2.90
2022-12-09T17:51:53.734Z,2.90
2022-12-09T17:54:23.295Z,2.80
2022-12-09T17:56:51.513Z,2.80
2022-12-09T17:59:28.588Z,2.70
2022-12-09T18:01:56.722Z,2.70
2022-12-09T18:04:24.863Z,2.60
2022-12-09T18:06:52.910Z,2.60
2022-12-09T18:09:23.090Z,2.60
2022-12-09T18:11:51.921Z,2.60
2022-12-09T18:14:20.994Z,2.60
2022-12-09T18:16:50.070Z,2.60
2022-12-09T18:19:20.315Z,2.50
2022-12-09T18:21:48.791Z,2.50
2022-12-09T18:24:17.050Z,2.50
2022-12-09T18:26:46.548Z,2.40
2022-12-09T18:29:15.371Z,2.40
2022-12-09T18:31:45.862Z,2.40
2022-12-09T18:34:14.281Z,2.40
2022-12-09T18:36:42.567Z,2.30
2022-12-09T18:39:10.577Z,2.30
2022-12-09T18:41:38.613Z,2.30
2022-12-09T18:44:08.672Z,2.30
2022-12-09T18:46:39.546Z,2.30
2022-12-09T18:49:09.668Z,2.20
2022-12-09T18:51:38.902Z,2.20
2022-12-09T18:54:08.142Z,2.20
2022-12-09T18:56:37.400Z,2.10
2022-12-09T18:59:08.581Z,2.10
2022-12-09T19:01:40.448Z,2.10
2022-12-09T19:04:13.400Z,2.10
2022-12-09T19:06:43.002Z,2.00
2022-12-09T19:09:13.089Z,2.00
2022-12-09T19:11:42.582Z,2.00
2022-12-09T19:14:12.196Z,1.50
2022-12-09T19:16:40.472Z,2.00
2022-12-09T19:19:10.820Z,1.90
2022-12-09T19:21:39.344Z,2.00
2022-12-09T19:24:09.067Z,1.90
2022-12-09T19:26:37.798Z,1.90
2022-12-09T19:29:08.137Z,1.70
2022-12-09T19:31:39.581Z,1.90
2022-12-09T19:34:09.377Z,1.90
2022-12-09T19:36:37.770Z,1.80
2022-12-09T19:39:08.310Z,1.90
2022-12-09T19:41:37.671Z,1.90
2022-12-09T19:44:06.596Z,1.80
2022-12-09T19:46:35.747Z,1.80
2022-12-09T19:49:05.596Z,1.80
2022-12-09T19:51:34.221Z,1.80
2022-12-09T19:54:03.042Z,1.70
2022-12-09T19:56:31.372Z,1.70
2022-12-09T19:59:00.623Z,1.70
2022-12-09T20:01:30.409Z,1.60
2022-12-09T20:04:08.794Z,1.60
2022-12-09T20:06:43.931Z,1.60
2022-12-09T20:09:14.346Z,1.60
2022-12-09T20:11:43.711Z,1.60
2022-12-09T20:14:14.039Z,1.60
2022-12-09T20:16:42.437Z,1.70
2022-12-09T20:19:11.717Z,1.60
2022-12-09T20:21:41.286Z,1.60
2022-12-09T20:24:10.947Z,1.60
2022-12-09T20:26:40.207Z,1.60
2022-12-09T20:29:10.810Z,1.50
2022-12-09T20:31:40.739Z,1.50
2022-12-09T20:34:12.606Z,1.50
2022-12-09T20:36:42.789Z,1.40
2022-12-09T20:39:15.321Z,1.40
2022-12-09T20:41:44.505Z,1.40
2022-12-09T20:44:13.925Z,1.40
2022-12-09T20:46:46.045Z,1.40
2022-12-09T20:49:14.157Z,1.40
2022-12-09T20:51:45.131Z,1.40
2022-12-09T20:54:14.863Z,1.40
2022-12-09T20:56:43.403Z,1.30
2022-12-09T20:59:13.890Z,1.30
2022-12-09T21:01:43.545Z,1.30
2022-12-09T21:04:11.727Z,1.20
2022-12-09T21:06:41.277Z,1.20
2022-12-09T21:09:11.743Z,1.20
2022-12-09T21:11:41.686Z,1.20
2022-12-09T21:14:11.476Z,1.20
2022-12-09T21:16:42.263Z,1.20
2022-12-09T21:19:13.658Z,1.20
2022-12-09T21:21:45.415Z,1.10
2022-12-09T21:24:14.556Z,1.10
2022-12-09T21:26:44.415Z,1.10
2022-12-09T21:29:14.324Z,1.10
2022-12-09T21:31:44.194Z,1.10
2022-12-09T21:34:12.401Z,1.10
2022-12-09T21:36:42.528Z,1.20
2022-12-09T21:39:13.241Z,1.20
2022-12-09T21:41:43.518Z,1.20
2022-12-09T21:44:17.389Z,1.30
2022-12-09T21:46:46.201Z,1.30
2022-12-09T21:49:15.344Z,1.30
2022-12-09T21:51:45.008Z,1.40
2022-12-09T21:54:13.757Z,1.50
2022-12-09T21:56:43.209Z,1.70
2022-12-09T21:59:12.253Z,1.70
2022-12-09T22:01:42.936Z,1.80
2022-12-09T22:04:12.842Z,1.90
2022-12-09T22:06:41.295Z,1.90
2022-12-09T22:09:09.877Z,2.00
2022-12-09T22:11:39.245Z,2.10
2022-12-09T22:14:10.811Z,2.00
2022-12-09T22:16:40.634Z,2.10
2022-12-09T22:19:10.442Z,2.00
2022-12-09T22:21:38.479Z,2.20
2022-12-09T22:24:09.298Z,2.20
2022-12-09T22:26:37.316Z,2.10
2022-12-09T22:29:06.339Z,2.10
2022-12-09T22:31:37.325Z,2.10
2022-12-09T22:34:08.037Z,2.10
2022-12-09T22:36:37.130Z,2.10
2022-12-09T22:39:06.695Z,2.10
2022-12-09T22:41:35.527Z,2.10
2022-12-09T22:44:04.183Z,2.20
2022-12-09T22:46:34.207Z,2.20
2022-12-09T22:49:05.885Z,2.20
2022-12-09T22:51:36.598Z,2.30
2022-12-09T22:54:08.033Z,2.20
2022-12-09T22:56:38.160Z,2.30
2022-12-09T22:59:06.421Z,2.30
2022-12-09T23:01:37.252Z,2.30
2022-12-09T23:04:09.302Z,2.20
2022-12-09T23:06:38.905Z,2.30
2022-12-09T23:09:08.320Z,2.30
2022-12-09T23:11:37.024Z,2.30
2022-12-09T23:14:05.261Z,2.30
2022-12-09T23:16:33.465Z,2.20
2022-12-09T23:19:01.635Z,2.20
2022-12-09T23:21:34.754Z,2.20
2022-12-09T23:24:06.051Z,2.20
2022-12-09T23:26:37.036Z,2.10
2022-12-09T23:29:07.479Z,2.10
2022-12-09T23:31:38.277Z,2.00
2022-12-09T23:34:07.641Z,2.00
2022-12-09T23:36:38.794Z,2.00
2022-12-09T23:39:10.886Z,2.00
2022-12-09T23:41:39.668Z,1.90
2022-12-09T23:44:11.831Z,1.90
2022-12-09T23:46:40.448Z,1.90
2022-12-09T23:49:08.964Z,1.80
2022-12-09T23:51:41.172Z,1.70
2022-12-09T23:54:10.851Z,1.70
2022-12-09T23:56:40.712Z,1.50
2022-12-09T23:59:10.427Z,1.50
